WetterOnline ( https://www.wetteronline.de )

Wetter aktuell Meiningen

Aktuelles Wetter: Meiningen (453m)

6-stündlich | Neueste Meldungen
Ortszeit Temperatur Wetter
Do, 18.08. 8:00 18.4° C wolkig
Do, 18.08. 2:00 18.4° C wolkig
Mi, 17.08. 20:00 25.1° C wolkig
Mi, 17.08. 14:00 28.4° C wolkig
Mi, 17.08. 8:00 18.5° C wolkig
Mi, 17.08. 2:00 17.8° C wolkenlos
Di, 16.08. 20:00 25.1° C leicht bewölkt
Di, 16.08. 14:00 25.3° C fast wolkenlos
Ortszeit Temperatur Wetter
Do, 18.08. 12:30 17.4° C bedeckt
Do, 18.08. 12:20 17.4° C Dunst
Do, 18.08. 12:10 17.4° C Dunst
Do, 18.08. 12:00 17.6° C leichter Regen
Do, 18.08. 11:50 17.6° C leichter Regen
Do, 18.08. 11:40 17.6° C leichter Regen
Do, 18.08. 11:30 17.0° C leichter Regen
Do, 18.08. 11:00 17.0° C leichter Regen
Do, 18.08. 10:30 17.2° C leichter Regen
Do, 18.08. 10:00 17.4° C leichter Regen
Do, 18.08. 9:30 18.7° C leichter Regen
Ortszeit Relative Feuchte Sichtweite
Do, 18.08. 8:00 75% 16 km
Do, 18.08. 2:00 66% 50 km
Mi, 17.08. 20:00 42% 30 km
Mi, 17.08. 14:00 34% 55 km
Mi, 17.08. 8:00 67% 60 km
Mi, 17.08. 2:00 68% 65 km
Di, 16.08. 20:00 44% 65 km
Di, 16.08. 14:00 42% >70 km
Ortszeit Relative Feuchte Sichtweite
Do, 18.08. 12:30 93% 3.4 km
Do, 18.08. 12:20 93% -
Do, 18.08. 12:10 92% -
Do, 18.08. 12:00 93% 3.1 km
Do, 18.08. 11:50 93% -
Do, 18.08. 11:40 93% -
Do, 18.08. 11:30 93% 2.9 km
Do, 18.08. 11:00 91% 3.1 km
Do, 18.08. 10:30 92% 4.9 km
Do, 18.08. 10:00 86% 6 km
Do, 18.08. 9:30 82% 9 km
Ortszeit Niederschlagsmenge Niederschlagsart
Do, 18.08. 8:00 0.0 l/m2 in 12 Std. -
Do, 18.08. 2:00 0.0 l/m2 in 6 Std. -
Mi, 17.08. 20:00 0.1 l/m2 in 12 Std. Regen
Mi, 17.08. 14:00 0.0 l/m2 in 6 Std. -
Mi, 17.08. 8:00 0.0 l/m2 in 12 Std. -
Mi, 17.08. 2:00 0.0 l/m2 in 6 Std. -
Di, 16.08. 20:00 0.0 l/m2 in 12 Std. -
Di, 16.08. 14:00 0.0 l/m2 in 6 Std. -
Ortszeit Niederschlagsmenge Niederschlagsart
Do, 18.08. 12:30 0.1 l/m2 in 1 Std. Schneeregen
Do, 18.08. 12:20 keine Meldung -
Do, 18.08. 12:10 keine Meldung -
Do, 18.08. 12:00 2.0 l/m2 in 1 Std. Regen
Do, 18.08. 11:50 keine Meldung -
Do, 18.08. 11:40 keine Meldung -
Do, 18.08. 11:30 1.7 l/m2 in 1 Std. -
Do, 18.08. 11:00 2.1 l/m2 in 1 Std. Regen
Do, 18.08. 10:30 0.5 l/m2 in 1 Std. -
Do, 18.08. 10:00 0.6 l/m2 in 1 Std. Regen
Do, 18.08. 9:30 0.3 l/m2 in 1 Std. -
Ortszeit Stärke Spitze Richtung
km/h Bft. km/h Grad Sektor
Do, 18.08. 8:00 13 3 20 340° N
Do, 18.08. 2:00 0 0 11 - -
Mi, 17.08. 20:00 2 1 31 150° SO
Mi, 17.08. 14:00 9 2 28 140° SO
Mi, 17.08. 8:00 2 1 9 30° NO
Mi, 17.08. 2:00 4 1 7 50° NO
Di, 16.08. 20:00 6 1 28 190° S
Di, 16.08. 14:00 11 2 32 180° S
Ortszeit Stärke Spitze Richtung
km/h Bft. km/h Grad Sektor
Do, 18.08. 12:30 22 4 32 320° NW
Do, 18.08. 12:20 22 4 - 320° NW
Do, 18.08. 12:10 18 3 - 320° NW
Do, 18.08. 12:00 18 3 25 330° NW
Do, 18.08. 11:50 18 3 - 330° NW
Do, 18.08. 11:40 18 3 - 330° NW
Do, 18.08. 11:30 11 2 18 340° N
Do, 18.08. 11:00 7 2 14 10° N
Do, 18.08. 10:30 11 2 14 10° N
Do, 18.08. 10:00 4 1 14 360° N
Do, 18.08. 9:30 4 1 14 150° SO
Ortszeit Untergrenze Bedeckung Gattung
total tief tief mittel hoch
Do, 18.08. 8:00 2700 m 8/8 2/8 - - -
Do, 18.08. 2:00 4200 m 7/8 5/8 - - -
Mi, 17.08. 20:00 9000 m 8/8 0/8 - - -
Mi, 17.08. 14:00 1800 m 7/8 3/8 - - -
Mi, 17.08. 8:00 8400 m 8/8 0/8 - - -
Mi, 17.08. 2:00 - 0/8 0/8 - - -
Di, 16.08. 20:00 10500 m 4/8 0/8 - - -
Di, 16.08. 14:00 1320 m 1/8 1/8 - - -
Ortszeit Bedeckungsgrad in Achtel und Wolkenuntergrenze
Do, 18.08. 12:30 1(120m) 7(1800m) 8(2700m)
Do, 18.08. 12:20 1(120m) 7(1800m) 8(2700m)
Do, 18.08. 12:10 8
Do, 18.08. 12:00 1(1500m) 7(2400m) 8(3600m)
Do, 18.08. 11:50 1(1500m) 7(2400m) 8(3600m)
Do, 18.08. 11:40 8
Do, 18.08. 11:30 8(2700m)
Do, 18.08. 11:00 8(2700m)
Do, 18.08. 10:30 7(2700m)
Do, 18.08. 10:00 2(2100m) 8(2700m)
Do, 18.08. 9:30 8(2100m)
Ortszeit Luftdruck NN (hPa) Tendenz (hPa in 3 Std.)
Do, 18.08. 8:00 1012 + 0,2
Do, 18.08. 2:00 1012 + 0,2
Mi, 17.08. 20:00 1010 - 0,5
Mi, 17.08. 14:00 1010 - 0,3
Mi, 17.08. 8:00 1011 + 0,3
Mi, 17.08. 2:00 1012 0,0
Di, 16.08. 20:00 1009 + 0,2
Di, 16.08. 14:00 1009 0,0
Ortszeit Luftdruck NN (hPa) Tendenz (hPa in 3 Std.)
Do, 18.08. 12:30 1012 - 0,6
Do, 18.08. 12:20 1012 keine Meldung
Do, 18.08. 12:10 1012 keine Meldung
Do, 18.08. 12:00 1012 - 0,4
Do, 18.08. 11:50 1012 keine Meldung
Do, 18.08. 11:40 1012 keine Meldung
Do, 18.08. 11:30 1013 + 0,8
Do, 18.08. 11:00 1013 + 1,1
Do, 18.08. 10:30 1013 + 1,1
Do, 18.08. 10:00 1013 + 1,4
Do, 18.08. 9:30 1013 + 1,3
Ortszeit Schneehöhe (cm)
Do, 18.08. 8:00 0
Do, 18.08. 2:00 0
Mi, 17.08. 20:00 0
Mi, 17.08. 14:00 0
Mi, 17.08. 8:00 0
Mi, 17.08. 2:00 0
Di, 16.08. 20:00 0
Di, 16.08. 14:00 0
Ortszeit Schneehöhe (cm)
Do, 18.08. 12:30 0
Do, 18.08. 12:20 0
Do, 18.08. 12:10 0
Do, 18.08. 12:00 0
Do, 18.08. 11:50 0
Do, 18.08. 11:40 0
Do, 18.08. 11:30 0
Do, 18.08. 11:00 0
Do, 18.08. 10:30 0
Do, 18.08. 10:00 0
Do, 18.08. 9:30 0
Link zu dieser Seite / Seite empfehlen

Das Wetter in ...